Hundvaag 1 weather for Dec 2010
Month no. 282
Obs.
Da.
Temp. Dew Point Precip. Wind
Speed
Wind gusts Cloud cover Press. Humidity Wind dir. Sunny OPT
01.12.2010 -4,5 -13,6 0,0 12,9 12,9 10 1032,8 49,0 67,5 1 67,5 %
02.12.2010 -3,6 -9,1 0,0 8,0 8,0 10 1027,1 66,0 292,5 1 70,0 %
03.12.2010 -4,8 -9,3 0,0 1,6 1,6 10 1011,9 71,0 112,5 1 75,0 %
04.12.2010 0,4 -3,2 0,0 8,0 9,7 10 1005,8 77,0 90,0 1 75,0 %
05.12.2010 1,9 0,1 1,7 4,8 8,0 1 997,6 88,0 45,0 1 55,0 %
06.12.2010 -0,4 -3,9 0,1 3,2 3,2 10 997,3 77,0 90,0 1 77,5 %
07.12.2010 -2,2 -5,5 0,0 4,8 3,2 10 1003,7 78,0 90,0 1 75,0 %
08.12.2010 1,8 -0,3 4,0 8,0 8,0 2 1008,1 86,0 135,0 1 52,5 %
09.12.2010 1,8 -3,9 6,2 7,4 1,6 9 1008,0 86,0 157,5 1 67,5 %
10.12.2010 0,5 -2,2 0,2 3,2 3,2 2 1022,7 82,0 135,0 1 60,0 %
11.12.2010 4,9 4,3 11,2 4,8 35,4 0 984,1 89,0 45,0   47,5 %
12.12.2010 -1,9 0,0 2,5 3,2 0,0 1 1000,7 89,0 315,0   55,0 %
13.12.2010 -1,9 0,0 0,0 1,6 0,0 10 1006,1 88,0 112,5 1 77,5 %
14.12.2010 2,1 -1,5 0,0 0,0 0,0 1 1036,6 77,0     57,5 %
15.12.2010 1,0 -0,9 1,0 1,6 3,2 6 1035,2 87,0 90,0 1 70,0 %
16.12.2010 -0,1 -2,5 8,4 35,4 29,0 0 997,6 84,0 292,5   25,0 %
17.12.2010 -3,4 -6,5 0,0 3,2 4,8 6 992,6 79,0 90,0 1 65,0 %
18.12.2010 0,6 -5,8 0,0 14,5 16,1 2 1004,7 62,0 90,0   52,5 %
19.12.2010 -3,5 -8,4 0,0 11,3 9,7 0 1010,8 69,0 90,0   42,5 %
20.12.2010 -5,6 -13,0 0,0 9,7 9,7 10 1004,1 56,0 22,5 1 70,0 %
21.12.2010 -4,0 -8,3 0,0 3,2 4,8 0 1007,1 72,0 112,5   50,0 %
22.12.2010 -2,9 -5,7 0,0 3,2 3,2 10 1015,2 81,0 67,5 1 75,0 %
23.12.2010 -0,5 -3,3 0,0 3,2 9,7 1 1019,6 81,0 90,0   55,0 %
24.12.2010 -2,8 -5,4 0,0 1,6 4,8 0 1023,4 82,0 157,5   50,0 %
25.12.2010 -1,6 -3,2 0,0 0,0 1,6 8 1027,4 89,0   1 72,5 %
26.12.2010 -4,9 -8,5 0,0 4,8 4,8 10 1026,4 76,0 0,0 1 72,5 %
27.12.2010 -4,1 -6,2 0,0 1,6 1,6 10 1022,0 85,0 157,5 1 75,0 %
28.12.2010 -4,5 -9,3 0,0 11,3 11,3 10 1028,8 69,0 135,0 1 67,5 %
29.12.2010 -1,7 -5,8 0,0 4,8 8,0 3 1030,1 73,0 135,0 1 57,5 %
30.12.2010 -0,2 -3,4 0,0 1,6 1,6 0 1025,4 79,0 67,5   52,5 %
31.12.2010 1,8 -0,1 0,0 1,6 1,6 0 1021,7 87,0 112,5   55,0 %
Avrg/Sum -1,4 -4,7 35,3 5,9 7,1 5,2 1014,0 77,9 117,2 20 61,9 %